Hauptseite
METAR-TAF:

METAR-TAF

Flughäfen :

Fort Belvoir, Virginia, Vereinigte Staaten

Breite: 38-43N, Länge: 077-11W, Höhe: 21 m

Beobachtung

Neuester Wetterbericht von vor 35 Minuten, um 16:56 UTC
Windstille
Temperatur 21°C
Luftfeuchtigkeit 69%
Luftdruck 1023 hPa
Sichtweite: 16.1 km
Geschlossene Wolkendecke in der Höhe von 2400 ft

METAR: KDAA 251656Z AUTO 00000KT 10SM OVC024 21/15 A3022 RMK AO2 SLP236 T02060147 TSNO $

Zeit: 13:31 (17:31 UTC)


TAF: fehlend

Wetterbeobachtungen und Prognosen von mehr als 4000 Flughäfen (METAR und TAF Bericht).

Die verfügbaren Stationen werden durch gelbe und rote Markierungen auf der Karte dargestellt.

Führen Sie die Maus auf sie, um den Namen der Station zu sehen.

Darauf klicken, um die Beobachtung von Wetterbeobachtungen und Prognosen zu sehen.

Um die Karte zu ändern : klicken Sie auf den grünen Tasten mit einem schwarzen Kreuz Zum Vergrößern, auf den grünen Button mit einem Gedankenstrich zu verkleinern, oder auf die grünen Pfeile für benachbarte Karten.


METAR-TAF: